To NAV CANADA Home Page Login to a new session Search on AWWS site Disclaimer Vers la page française équivalente Tips FAQ What's new on the site To the Forecasts and Observations / NOTAM section To "File a Flight Plan" website Publications and other links Update of the User's profile FIC Telephone Numbers My Weather Data Folder Route Weather Data Regional Weather Data Local Weather Data To the Forecasts and Observations / NOTAM section
Request Generated 05/28/2022 at 03:23:53 UTC . Weather information available at that time is displayed.

METAR/TAF

WINDSOR/ON    (show WxCam)

SPECI CYQG 280312Z AUTO 03010KT 9SM BKN023 OVC028 14/11 A2980 RMK SLP093 DENSITY ALT 800FT=
METAR CYQG 280300Z AUTO 03008KT 9SM OVC026 14/11 A2980 RMK SLP091 DENSITY ALT 800FT=
SPECI CYQG 280251Z AUTO 03009KT 9SM OVC026 14/11 A2979 RMK SLP092 DENSITY ALT 800FT=
SPECI CYQG 280208Z AUTO 02013G18KT 9SM OVC018 13/12 A2978 RMK SLP089 DENSITY ALT 800FT=
METAR CYQG 280200Z AUTO 03013G18KT 9SM -RA OVC018 13/12 A2978 RMK SLP087 DENSITY ALT 800FT=
SPECI CYQG 280155Z AUTO 05013G18KT 9SM -RA OVC016 13/12 A2978 RMK SLP086 DENSITY ALT 800FT=
METAR CYQG 280100Z AUTO 04017G22KT 9SM SCT009 OVC014 14/12 A2977 RMK SLP083 DENSITY ALT 800FT=

TAF AMD CYQG 280029Z 2800/2824 04015KT 5SM -RA BR BKN007 OVC025
TEMPO 2800/2806 P6SM NSW SCT007 OVC025 PROB30 2800/2806 BKN005
OVC020
FM280600 02008KT P6SM BKN030 TEMPO 2806/2808 BKN020
FM280800 VRB03KT 6SM BR SCT020 PROB30 2809/2813 3/4SM BR OVC002
FM281300 VRB03KT P6SM SCT020
FM281600 VRB03KT P6SM FEW030
BECMG 2818/2820 12008KT
RMK FCST BASED ON AUTO OBS. NXT FCST BY 280600Z=

LONDON/ON    

METAR CYXU 280300Z 30006KT 12SM FEW008 BKN015 OVC020 15/14 A2975 RMK SF1SC4SC3 SLP077 DENSITY ALT 1300FT=
SPECI CYXU 280239Z 32007KT 10SM FEW005 OVC015 15/15 A2975 RMK SF2SC6 SLP075 DENSITY ALT 1400FT=
METAR CYXU 280200Z 32007KT 6SM BR OVC004 15/15 A2975 RMK SF8 SLP075 DENSITY ALT 1400FT=
SPECI CYXU 280146Z 30006KT 6SM BR OVC004 16/15 A2974 RMK SF8 SLP074 DENSITY ALT 1400FT=
METAR CYXU 280100Z 27006KT 5SM BR BKN008 OVC022 17/16 A2973 RMK SC5SC3 SLP070 DENSITY ALT 1600FT=

TAF AMD CYXU 280209Z 2802/2824 32007KT 5SM BR OVC004 TEMPO 2802/2805
P6SM NSW SCT004 OVC015
FM280500 33008KT 5SM BR BKN008 OVC025 TEMPO 2805/2813 P6SM NSW
SCT008 BKN030
FM281300 33008KT P6SM FEW015
FM281600 33008KT P6SM FEW030
RMK NXT FCST BY 280600Z=

SARNIA (CHRIS HADFIELD)/ON    (show WxCam)

METAR CYZR 280300Z AUTO 33004KT 9SM FEW012 OVC032 10/09 A2980 RMK SLP093=
SPECI CYZR 280253Z AUTO 34006KT 9SM SCT012 OVC032 10/09 A2980 RMK SLP095=
SPECI CYZR 280227Z AUTO 34007KT 9SM SCT006 BKN012 OVC030 10/09 A2980 RMK SLP095=
SPECI CYZR 280213Z AUTO 34006KT 9SM BKN006 OVC030 10/09 A2979 RMK SLP094=
METAR CYZR 280200Z AUTO 33007KT 9SM FEW006 OVC028 10/09 A2979 RMK SLP090=
SPECI CYZR 280150Z AUTO 35006KT 9SM SCT006 OVC028 10/09 A2978 RMK SLP091=
SPECI CYZR 280122Z AUTO 36005KT 9SM BKN006 OVC024 10/09 A2978 RMK SLP090=
METAR CYZR 280100Z AUTO 01006KT 9SM FEW004 OVC024 10/09 A2977 RMK SLP085=

*** REMARK        : Forecast period has ended; this was the last TAF issued
*** REMARQUE : La période de prévision est échue; ceci était le dernier TAF qui a été émis
TAF AMD CYZR 272336Z 2723/2802 01005KT 4SM -RA BR BKN006 OVC015
TEMPO 2723/2802 P6SM -RA SCT006 OVC015 PROB30 2723/2802 1SM -RA
BR OVC002
RMK FCST BASED ON AUTO OBS. NXT FCST BY 280800Z=

KITCHENER/WATERLOO/ON    (show WxCam)

SPECI CYKF 280315Z AUTO 31004KT 9SM SCT006 OVC019 15/15 A2974 RMK SLP074 DENSITY ALT 1500FT=
SPECI CYKF 280303Z AUTO 32004KT 9SM BKN006 OVC019 15/15 A2974 RMK SLP073 DENSITY ALT 1500FT=
METAR CYKF 280300Z AUTO 31003KT 9SM BKN004 OVC019 15/15 A2974 RMK SLP071 DENSITY ALT 1500FT=
SPECI CYKF 280213Z AUTO 30007KT 9SM OVC004 16/16 A2973 RMK SLP068 DENSITY ALT 1600FT=
SPECI CYKF 280208Z AUTO 31009KT 280V340 9SM -RA BKN004 OVC007 16/16 A2973 RMK SLP069 DENSITY ALT 1700FT=
METAR CYKF 280200Z AUTO 31004KT 9SM -RA OVC007 16/16 A2973 RMK SLP068 DENSITY ALT 1700FT=
SPECI CYKF 280143Z AUTO 33006KT 9SM -RA BKN009 BKN021 BKN091 OVC110 16/16 A2972 RMK SLP065 DENSITY ALT 1700FT=
SPECI CYKF 280141Z AUTO 33005KT 9SM -RA SCT009 BKN021 BKN091 OVC110 16/16 A2972 RMK SLP065 DENSITY ALT 1600FT=
METAR CYKF 280100Z AUTO 29004KT 9SM -RA SCT091 OVC110 15/15 A2972 RMK LTNG DIST N SLP064 DENSITY ALT 1600FT=

TAF AMD CYKF 280237Z 2802/2814 30007KT 5SM BR OVC004 TEMPO 2802/2806
P6SM NSW SCT004 OVC015
FM280600 30005KT P6SM SCT006 BKN040 TEMPO 2806/2812 5SM BR
BKN006 OVC020 PROB30 2806/2812 BKN005 OVC010
FM281200 32008KT P6SM BKN015 OVC040
RMK FCST BASED ON AUTO OBS. NXT FCST BY 280800Z=

HAMILTON/ON    

METAR CYHM 280300Z 21003KT 15SM BKN028 BKN044 OVC250 16/14 A2973 RMK SC5SC1CI2 SLP068 DENSITY ALT 1300FT=
METAR CYHM 280200Z 26003KT 15SM SCT034 BKN250 17/14 A2972 RMK SC4CI3 SLP066 DENSITY ALT 1400FT=
METAR CYHM 280100Z 28005KT 15SM FEW025 FEW040 SCT140 BKN250 17/14 A2972 RMK CU1SC1AC2CI4 CU TR SLP064 DENSITY ALT 1500FT=

TAF AMD CYHM 280210Z 2802/2824 26005KT P6SM SCT030 TEMPO 2802/2809
BKN020 PROB30 2803/2809 5SM BR BKN004 OVC015
FM280900 33005KT P6SM FEW008 SCT030 PROB30 2809/2813 BKN008
BKN030
FM281300 33008KT P6SM SCT030
RMK NXT FCST BY 280600Z=

TORONTO/LESTER B. PEARSON INTL/ON    

METAR CYYZ 280300Z 36007KT 15SM BKN017 16/15 A2972 RMK SC7 SLP065 DENSITY ALT 1100FT=
METAR CYYZ 280200Z 34011KT 15SM FEW030 FEW095 BKN140 16/16 A2971 RMK CF1AC1AC6 CF TR SLP062 DENSITY ALT 1100FT=
SPECI CYYZ 280132Z 35012KT 15SM FEW030 SCT095 BKN140 OVC190 17/17 A2970 RMK SC1AC3AC3AC1 SLP059 DENSITY ALT 1200FT=
METAR CYYZ 280100Z 34011KT 15SM -SHRA FEW012 FEW030 BKN095 OVC110 19/18 A2970 RMK CF1SC1AC6AC1 CF TR CVCTV CLD EMBD SLP059 DENSITY A
LT 1400FT=

TAF CYYZ 280240Z 2803/2906 34010KT P6SM FEW030 BKN140 TEMPO
2803/2805 5SM -SHRA BR SCT008 OVC020
FM280500 34010KT P6SM SCT008 BKN030 PROB30 2805/2814 BKN008
BKN030
FM281400 35012KT P6SM SCT020
FM281600 35010KT P6SM FEW030
FM290000 01008KT P6SM SCT050
RMK NXT FCST BY 280600Z=
Your time UTC time
Weather data provided by Environment Canada and NAV CANADA